sensor_id;sensor_type;location;lat;lon;timestamp;P1;durP1;ratioP1;P2;durP2;ratioP2
56541;SDS011;42438;53.174;6.730;2023-02-28T00:00:09;8.38;;;3.63;;
56541;SDS011;42438;53.174;6.730;2023-02-28T00:02:42;6.90;;;3.00;;
56541;SDS011;42438;53.174;6.730;2023-02-28T00:05:15;6.95;;;3.08;;
56541;SDS011;42438;53.174;6.730;2023-02-28T00:07:48;7.68;;;3.20;;
56541;SDS011;42438;53.174;6.730;2023-02-28T00:10:20;8.60;;;3.28;;
56541;SDS011;42438;53.174;6.730;2023-02-28T00:12:54;8.10;;;3.22;;
56541;SDS011;42438;53.174;6.730;2023-02-28T00:15:29;8.98;;;3.55;;
56541;SDS011;42438;53.174;6.730;2023-02-28T00:18:00;8.48;;;3.03;;
56541;SDS011;42438;53.174;6.730;2023-02-28T00:20:32;8.00;;;3.20;;
56541;SDS011;42438;53.174;6.730;2023-02-28T00:23:02;6.28;;;2.78;;
56541;SDS011;42438;53.174;6.730;2023-02-28T00:25:33;5.88;;;2.75;;
56541;SDS011;42438;53.174;6.730;2023-02-28T00:28:04;6.00;;;3.08;;
56541;SDS011;42438;53.174;6.730;2023-02-28T00:30:34;4.43;;;2.65;;
56541;SDS011;42438;53.174;6.730;2023-02-28T00:33:05;6.38;;;2.80;;
56541;SDS011;42438;53.174;6.730;2023-02-28T00:35:36;7.97;;;3.22;;
56541;SDS011;42438;53.174;6.730;2023-02-28T00:38:06;6.90;;;3.63;;
56541;SDS011;42438;53.174;6.730;2023-02-28T00:40:37;7.68;;;2.88;;
56541;SDS011;42438;53.174;6.730;2023-02-28T00:43:07;7.28;;;3.47;;
56541;SDS011;42438;53.174;6.730;2023-02-28T00:45:38;8.63;;;3.13;;
56541;SDS011;42438;53.174;6.730;2023-02-28T00:48:09;8.43;;;3.67;;
56541;SDS011;42438;53.174;6.730;2023-02-28T00:50:40;9.27;;;3.70;;
56541;SDS011;42438;53.174;6.730;2023-02-28T00:53:10;6.80;;;3.50;;
56541;SDS011;42438;53.174;6.730;2023-02-28T00:55:41;6.47;;;3.42;;
56541;SDS011;42438;53.174;6.730;2023-02-28T00:58:11;8.10;;;3.58;;
56541;SDS011;42438;53.174;6.730;2023-02-28T01:00:42;9.57;;;3.60;;
56541;SDS011;42438;53.174;6.730;2023-02-28T01:03:13;5.63;;;3.33;;
56541;SDS011;42438;53.174;6.730;2023-02-28T01:05:44;7.60;;;3.88;;
56541;SDS011;42438;53.174;6.730;2023-02-28T01:08:15;9.60;;;3.13;;
56541;SDS011;42438;53.174;6.730;2023-02-28T01:10:46;7.07;;;3.65;;
56541;SDS011;42438;53.174;6.730;2023-02-28T01:13:18;5.50;;;3.60;;
56541;SDS011;42438;53.174;6.730;2023-02-28T01:15:50;9.55;;;4.32;;
56541;SDS011;42438;53.174;6.730;2023-02-28T01:18:22;8.77;;;4.70;;
56541;SDS011;42438;53.174;6.730;2023-02-28T01:20:52;7.10;;;4.20;;
56541;SDS011;42438;53.174;6.730;2023-02-28T01:23:23;6.07;;;4.00;;
56541;SDS011;42438;53.174;6.730;2023-02-28T01:25:54;8.23;;;4.32;;
56541;SDS011;42438;53.174;6.730;2023-02-28T01:28:25;10.45;;;4.40;;
56541;SDS011;42438;53.174;6.730;2023-02-28T01:30:56;7.75;;;4.60;;
56541;SDS011;42438;53.174;6.730;2023-02-28T01:33:27;10.98;;;4.93;;
56541;SDS011;42438;53.174;6.730;2023-02-28T01:36:02;8.35;;;4.45;;
56541;SDS011;42438;53.174;6.730;2023-02-28T01:38:35;9.52;;;4.53;;
56541;SDS011;42438;53.174;6.730;2023-02-28T01:41:06;11.35;;;5.95;;
56541;SDS011;42438;53.174;6.730;2023-02-28T01:46:14;8.05;;;4.70;;
56541;SDS011;42438;53.174;6.730;2023-02-28T01:51:32;7.85;;;4.60;;
56541;SDS011;42438;53.174;6.730;2023-02-28T01:54:22;7.97;;;4.78;;
56541;SDS011;42438;53.174;6.730;2023-02-28T01:56:57;12.60;;;5.13;;
56541;SDS011;42438;53.174;6.730;2023-02-28T01:59:35;7.82;;;4.60;;
56541;SDS011;42438;53.174;6.730;2023-02-28T02:02:10;8.50;;;4.93;;
56541;SDS011;42438;53.174;6.730;2023-02-28T02:04:43;10.80;;;5.18;;
56541;SDS011;42438;53.174;6.730;2023-02-28T02:07:24;10.23;;;5.55;;
56541;SDS011;42438;53.174;6.730;2023-02-28T02:10:00;11.80;;;5.25;;
56541;SDS011;42438;53.174;6.730;2023-02-28T02:13:01;9.85;;;5.40;;
56541;SDS011;42438;53.174;6.730;2023-02-28T02:15:55;12.70;;;5.68;;
56541;SDS011;42438;53.174;6.730;2023-02-28T02:18:32;12.23;;;5.60;;
56541;SDS011;42438;53.174;6.730;2023-02-28T02:27:11;10.00;;;5.43;;
56541;SDS011;42438;53.174;6.730;2023-02-28T02:30:31;14.68;;;6.18;;
56541;SDS011;42438;53.174;6.730;2023-02-28T02:39:21;12.23;;;5.72;;
56541;SDS011;42438;53.174;6.730;2023-02-28T02:42:01;10.13;;;5.10;;
56541;SDS011;42438;53.174;6.730;2023-02-28T02:44:37;11.70;;;5.20;;
56541;SDS011;42438;53.174;6.730;2023-02-28T02:47:15;12.68;;;5.88;;
56541;SDS011;42438;53.174;6.730;2023-02-28T02:49:50;11.00;;;5.75;;
56541;SDS011;42438;53.174;6.730;2023-02-28T02:52:25;11.90;;;5.75;;
56541;SDS011;42438;53.174;6.730;2023-02-28T02:55:02;13.70;;;6.10;;
56541;SDS011;42438;53.174;6.730;2023-02-28T03:00:08;11.35;;;5.22;;
56541;SDS011;42438;53.174;6.730;2023-02-28T03:02:40;13.27;;;6.43;;
56541;SDS011;42438;53.174;6.730;2023-02-28T03:05:46;10.65;;;6.03;;
56541;SDS011;42438;53.174;6.730;2023-02-28T03:08:15;12.98;;;5.60;;
56541;SDS011;42438;53.174;6.730;2023-02-28T03:10:46;10.25;;;5.55;;
56541;SDS011;42438;53.174;6.730;2023-02-28T03:21:56;10.95;;;5.18;;
56541;SDS011;42438;53.174;6.730;2023-02-28T03:27:37;11.48;;;5.53;;
56541;SDS011;42438;53.174;6.730;2023-02-28T03:30:23;12.70;;;5.85;;
56541;SDS011;42438;53.174;6.730;2023-02-28T03:33:10;10.73;;;6.10;;
56541;SDS011;42438;53.174;6.730;2023-02-28T03:36:09;10.40;;;5.90;;
56541;SDS011;42438;53.174;6.730;2023-02-28T03:38:55;12.15;;;5.95;;
56541;SDS011;42438;53.174;6.730;2023-02-28T03:41:35;10.32;;;6.18;;
56541;SDS011;42438;53.174;6.730;2023-02-28T03:44:34;11.10;;;6.53;;
56541;SDS011;42438;53.174;6.730;2023-02-28T03:47:14;14.25;;;6.43;;
56541;SDS011;42438;53.174;6.730;2023-02-28T03:50:06;12.98;;;7.25;;
56541;SDS011;42438;53.174;6.730;2023-02-28T03:52:50;10.10;;;5.88;;
56541;SDS011;42438;53.174;6.730;2023-02-28T03:55:32;12.30;;;6.15;;
56541;SDS011;42438;53.174;6.730;2023-02-28T03:58:12;9.70;;;5.90;;
56541;SDS011;42438;53.174;6.730;2023-02-28T04:00:46;10.68;;;5.30;;
56541;SDS011;42438;53.174;6.730;2023-02-28T04:03:19;9.40;;;5.53;;
56541;SDS011;42438;53.174;6.730;2023-02-28T04:05:51;9.02;;;5.32;;
56541;SDS011;42438;53.174;6.730;2023-02-28T04:08:24;8.60;;;4.68;;
56541;SDS011;42438;53.174;6.730;2023-02-28T04:10:56;9.20;;;5.20;;
56541;SDS011;42438;53.174;6.730;2023-02-28T04:13:32;10.38;;;4.93;;
56541;SDS011;42438;53.174;6.730;2023-02-28T04:16:06;9.40;;;5.28;;
56541;SDS011;42438;53.174;6.730;2023-02-28T04:18:42;9.30;;;5.40;;
56541;SDS011;42438;53.174;6.730;2023-02-28T04:21:15;12.20;;;5.20;;
56541;SDS011;42438;53.174;6.730;2023-02-28T04:23:50;9.93;;;5.13;;
56541;SDS011;42438;53.174;6.730;2023-02-28T04:26:21;11.32;;;5.70;;
56541;SDS011;42438;53.174;6.730;2023-02-28T04:28:52;15.48;;;5.60;;
56541;SDS011;42438;53.174;6.730;2023-02-28T04:31:22;11.63;;;5.55;;
56541;SDS011;42438;53.174;6.730;2023-02-28T04:33:53;14.27;;;6.30;;
56541;SDS011;42438;53.174;6.730;2023-02-28T04:36:24;11.50;;;5.65;;
56541;SDS011;42438;53.174;6.730;2023-02-28T04:38:54;11.05;;;5.45;;
56541;SDS011;42438;53.174;6.730;2023-02-28T04:41:25;10.38;;;5.53;;
56541;SDS011;42438;53.174;6.730;2023-02-28T04:43:56;10.20;;;5.60;;
56541;SDS011;42438;53.174;6.730;2023-02-28T04:46:27;10.68;;;5.90;;
56541;SDS011;42438;53.174;6.730;2023-02-28T04:48:57;11.32;;;5.40;;
56541;SDS011;42438;53.174;6.730;2023-02-28T04:51:29;14.80;;;5.72;;
56541;SDS011;42438;53.174;6.730;2023-02-28T04:53:59;13.55;;;5.95;;
56541;SDS011;42438;53.174;6.730;2023-02-28T04:56:30;13.82;;;5.78;;
56541;SDS011;42438;53.174;6.730;2023-02-28T04:59:01;11.98;;;5.80;;
56541;SDS011;42438;53.174;6.730;2023-02-28T05:01:32;10.95;;;5.30;;
56541;SDS011;42438;53.174;6.730;2023-02-28T05:04:04;13.48;;;5.95;;
56541;SDS011;42438;53.174;6.730;2023-02-28T05:06:34;11.82;;;5.82;;
56541;SDS011;42438;53.174;6.730;2023-02-28T05:09:05;10.65;;;5.13;;
56541;SDS011;42438;53.174;6.730;2023-02-28T05:11:36;9.90;;;5.90;;
56541;SDS011;42438;53.174;6.730;2023-02-28T05:14:12;11.75;;;5.93;;
56541;SDS011;42438;53.174;6.730;2023-02-28T05:16:43;10.45;;;5.93;;
56541;SDS011;42438;53.174;6.730;2023-02-28T05:19:14;12.40;;;5.30;;
56541;SDS011;42438;53.174;6.730;2023-02-28T05:21:51;10.48;;;5.68;;
56541;SDS011;42438;53.174;6.730;2023-02-28T05:24:24;12.30;;;5.90;;
56541;SDS011;42438;53.174;6.730;2023-02-28T05:26:54;10.32;;;5.80;;
56541;SDS011;42438;53.174;6.730;2023-02-28T05:29:25;10.63;;;6.05;;
56541;SDS011;42438;53.174;6.730;2023-02-28T05:31:56;11.75;;;6.28;;
56541;SDS011;42438;53.174;6.730;2023-02-28T05:34:26;13.18;;;6.55;;
56541;SDS011;42438;53.174;6.730;2023-02-28T05:36:57;14.07;;;6.63;;
56541;SDS011;42438;53.174;6.730;2023-02-28T05:39:28;13.35;;;6.85;;
56541;SDS011;42438;53.174;6.730;2023-02-28T05:41:59;14.48;;;6.78;;
56541;SDS011;42438;53.174;6.730;2023-02-28T05:44:29;13.70;;;6.53;;
56541;SDS011;42438;53.174;6.730;2023-02-28T05:47:00;13.55;;;6.95;;
56541;SDS011;42438;53.174;6.730;2023-02-28T05:49:31;15.85;;;6.97;;
56541;SDS011;42438;53.174;6.730;2023-02-28T05:52:01;14.68;;;7.07;;
56541;SDS011;42438;53.174;6.730;2023-02-28T05:54:32;12.50;;;6.38;;
56541;SDS011;42438;53.174;6.730;2023-02-28T05:57:03;16.38;;;7.38;;
56541;SDS011;42438;53.174;6.730;2023-02-28T05:59:34;14.70;;;7.35;;
56541;SDS011;42438;53.174;6.730;2023-02-28T06:02:05;14.98;;;6.93;;
56541;SDS011;42438;53.174;6.730;2023-02-28T06:04:40;12.02;;;6.20;;
56541;SDS011;42438;53.174;6.730;2023-02-28T06:07:12;14.68;;;7.07;;
56541;SDS011;42438;53.174;6.730;2023-02-28T06:09:42;13.73;;;6.90;;
56541;SDS011;42438;53.174;6.730;2023-02-28T06:12:13;15.68;;;7.22;;
56541;SDS011;42438;53.174;6.730;2023-02-28T06:14:44;14.40;;;7.35;;
56541;SDS011;42438;53.174;6.730;2023-02-28T06:17:14;14.68;;;7.65;;
56541;SDS011;42438;53.174;6.730;2023-02-28T06:19:45;14.52;;;7.40;;
56541;SDS011;42438;53.174;6.730;2023-02-28T06:22:16;17.77;;;8.10;;
56541;SDS011;42438;53.174;6.730;2023-02-28T06:24:47;13.65;;;7.20;;
56541;SDS011;42438;53.174;6.730;2023-02-28T06:27:17;14.52;;;7.88;;
56541;SDS011;42438;53.174;6.730;2023-02-28T06:29:53;15.70;;;8.27;;
56541;SDS011;42438;53.174;6.730;2023-02-28T06:32:25;15.85;;;7.97;;
56541;SDS011;42438;53.174;6.730;2023-02-28T06:34:56;14.82;;;8.18;;
56541;SDS011;42438;53.174;6.730;2023-02-28T06:37:28;17.15;;;7.90;;
56541;SDS011;42438;53.174;6.730;2023-02-28T06:40:00;15.25;;;7.75;;
56541;SDS011;42438;53.174;6.730;2023-02-28T06:42:30;16.15;;;8.23;;
56541;SDS011;42438;53.174;6.730;2023-02-28T06:45:02;14.48;;;7.47;;
56541;SDS011;42438;53.174;6.730;2023-02-28T06:47:39;15.77;;;7.80;;
56541;SDS011;42438;53.174;6.730;2023-02-28T06:50:11;14.17;;;7.70;;
56541;SDS011;42438;53.174;6.730;2023-02-28T06:52:43;16.15;;;8.73;;
56541;SDS011;42438;53.174;6.730;2023-02-28T06:55:13;17.58;;;8.40;;
56541;SDS011;42438;53.174;6.730;2023-02-28T06:57:44;16.60;;;8.57;;
56541;SDS011;42438;53.174;6.730;2023-02-28T07:00:15;15.25;;;8.18;;
56541;SDS011;42438;53.174;6.730;2023-02-28T07:02:46;15.05;;;8.23;;
56541;SDS011;42438;53.174;6.730;2023-02-28T07:05:17;16.33;;;8.43;;
56541;SDS011;42438;53.174;6.730;2023-02-28T07:07:47;18.58;;;8.55;;
56541;SDS011;42438;53.174;6.730;2023-02-28T07:10:18;19.05;;;9.07;;
56541;SDS011;42438;53.174;6.730;2023-02-28T07:12:49;16.33;;;8.68;;
56541;SDS011;42438;53.174;6.730;2023-02-28T07:15:21;16.70;;;8.13;;
56541;SDS011;42438;53.174;6.730;2023-02-28T07:17:51;17.55;;;8.10;;
56541;SDS011;42438;53.174;6.730;2023-02-28T07:20:23;17.25;;;8.18;;
56541;SDS011;42438;53.174;6.730;2023-02-28T07:22:54;20.63;;;9.15;;
56541;SDS011;42438;53.174;6.730;2023-02-28T07:25:28;16.45;;;8.75;;
56541;SDS011;42438;53.174;6.730;2023-02-28T07:27:59;15.93;;;8.40;;
56541;SDS011;42438;53.174;6.730;2023-02-28T07:30:30;17.27;;;9.10;;
56541;SDS011;42438;53.174;6.730;2023-02-28T07:33:00;16.92;;;9.13;;
56541;SDS011;42438;53.174;6.730;2023-02-28T07:35:31;17.63;;;8.80;;
56541;SDS011;42438;53.174;6.730;2023-02-28T07:38:02;21.05;;;9.27;;
56541;SDS011;42438;53.174;6.730;2023-02-28T07:40:34;20.70;;;10.75;;
56541;SDS011;42438;53.174;6.730;2023-02-28T07:43:05;21.33;;;10.13;;
56541;SDS011;42438;53.174;6.730;2023-02-28T07:45:36;22.50;;;9.77;;
56541;SDS011;42438;53.174;6.730;2023-02-28T07:48:06;19.92;;;9.65;;
56541;SDS011;42438;53.174;6.730;2023-02-28T07:50:39;17.58;;;8.75;;
56541;SDS011;42438;53.174;6.730;2023-02-28T07:53:10;20.88;;;9.50;;
56541;SDS011;42438;53.174;6.730;2023-02-28T07:55:41;26.08;;;10.23;;
56541;SDS011;42438;53.174;6.730;2023-02-28T07:58:11;19.17;;;9.60;;
56541;SDS011;42438;53.174;6.730;2023-02-28T08:00:42;22.08;;;9.60;;
56541;SDS011;42438;53.174;6.730;2023-02-28T08:03:13;21.02;;;8.82;;
56541;SDS011;42438;53.174;6.730;2023-02-28T08:05:43;19.95;;;9.85;;
56541;SDS011;42438;53.174;6.730;2023-02-28T08:08:14;21.50;;;9.85;;
56541;SDS011;42438;53.174;6.730;2023-02-28T08:10:45;17.92;;;9.52;;
56541;SDS011;42438;53.174;6.730;2023-02-28T08:13:16;19.75;;;9.82;;
56541;SDS011;42438;53.174;6.730;2023-02-28T08:15:48;21.67;;;10.60;;
56541;SDS011;42438;53.174;6.730;2023-02-28T08:18:18;20.10;;;9.93;;
56541;SDS011;42438;53.174;6.730;2023-02-28T08:20:49;21.05;;;10.02;;
56541;SDS011;42438;53.174;6.730;2023-02-28T08:23:20;18.20;;;10.65;;
56541;SDS011;42438;53.174;6.730;2023-02-28T08:25:54;19.75;;;10.25;;
56541;SDS011;42438;53.174;6.730;2023-02-28T08:28:26;21.35;;;10.63;;
56541;SDS011;42438;53.174;6.730;2023-02-28T08:30:56;26.45;;;10.88;;
56541;SDS011;42438;53.174;6.730;2023-02-28T08:33:27;22.13;;;11.13;;
56541;SDS011;42438;53.174;6.730;2023-02-28T08:35:58;19.77;;;10.57;;
56541;SDS011;42438;53.174;6.730;2023-02-28T08:38:28;19.25;;;10.15;;
56541;SDS011;42438;53.174;6.730;2023-02-28T08:41:03;20.58;;;11.00;;
56541;SDS011;42438;53.174;6.730;2023-02-28T08:43:37;20.13;;;10.98;;
56541;SDS011;42438;53.174;6.730;2023-02-28T08:46:08;22.40;;;10.18;;
56541;SDS011;42438;53.174;6.730;2023-02-28T08:48:43;21.42;;;10.27;;
56541;SDS011;42438;53.174;6.730;2023-02-28T08:51:15;19.98;;;10.20;;
56541;SDS011;42438;53.174;6.730;2023-02-28T08:53:48;21.58;;;10.80;;
56541;SDS011;42438;53.174;6.730;2023-02-28T08:56:19;20.92;;;10.43;;
56541;SDS011;42438;53.174;6.730;2023-02-28T08:58:50;20.60;;;10.07;;
56541;SDS011;42438;53.174;6.730;2023-02-28T09:01:23;18.80;;;10.15;;
56541;SDS011;42438;53.174;6.730;2023-02-28T09:03:57;23.35;;;11.07;;
56541;SDS011;42438;53.174;6.730;2023-02-28T09:06:29;24.00;;;11.55;;
56541;SDS011;42438;53.174;6.730;2023-02-28T09:09:00;20.08;;;10.50;;
56541;SDS011;42438;53.174;6.730;2023-02-28T09:11:31;19.98;;;9.85;;
56541;SDS011;42438;53.174;6.730;2023-02-28T09:14:02;21.13;;;10.35;;
56541;SDS011;42438;53.174;6.730;2023-02-28T09:16:33;20.75;;;10.25;;
56541;SDS011;42438;53.174;6.730;2023-02-28T09:19:04;19.25;;;10.35;;
56541;SDS011;42438;53.174;6.730;2023-02-28T09:21:35;20.85;;;10.27;;
56541;SDS011;42438;53.174;6.730;2023-02-28T09:24:07;19.10;;;9.98;;
56541;SDS011;42438;53.174;6.730;2023-02-28T09:26:38;21.80;;;10.30;;
56541;SDS011;42438;53.174;6.730;2023-02-28T09:29:08;23.73;;;10.98;;
56541;SDS011;42438;53.174;6.730;2023-02-28T09:31:41;20.13;;;10.65;;
56541;SDS011;42438;53.174;6.730;2023-02-28T09:34:11;20.90;;;10.15;;
56541;SDS011;42438;53.174;6.730;2023-02-28T09:36:42;20.90;;;10.27;;
56541;SDS011;42438;53.174;6.730;2023-02-28T09:39:13;17.00;;;8.60;;
56541;SDS011;42438;53.174;6.730;2023-02-28T09:41:46;17.57;;;9.67;;
56541;SDS011;42438;53.174;6.730;2023-02-28T09:47:01;21.40;;;10.90;;
56541;SDS011;42438;53.174;6.730;2023-02-28T09:49:51;19.23;;;10.32;;
56541;SDS011;42438;53.174;6.730;2023-02-28T09:52:24;18.75;;;9.73;;
56541;SDS011;42438;53.174;6.730;2023-02-28T09:55:18;17.42;;;9.57;;
56541;SDS011;42438;53.174;6.730;2023-02-28T09:57:55;17.25;;;9.80;;
56541;SDS011;42438;53.174;6.730;2023-02-28T10:03:04;17.17;;;10.25;;
56541;SDS011;42438;53.174;6.730;2023-02-28T10:08:30;17.60;;;9.73;;
56541;SDS011;42438;53.174;6.730;2023-02-28T10:11:12;15.77;;;8.50;;
56541;SDS011;42438;53.174;6.730;2023-02-28T10:13:50;14.70;;;8.85;;
56541;SDS011;42438;53.174;6.730;2023-02-28T10:16:47;15.02;;;8.13;;
56541;SDS011;42438;53.174;6.730;2023-02-28T10:19:30;17.52;;;8.30;;
56541;SDS011;42438;53.174;6.730;2023-02-28T10:22:11;12.38;;;7.43;;
56541;SDS011;42438;53.174;6.730;2023-02-28T10:24:52;15.85;;;7.85;;
56541;SDS011;42438;53.174;6.730;2023-02-28T10:27:25;18.48;;;8.18;;
56541;SDS011;42438;53.174;6.730;2023-02-28T10:30:00;11.15;;;7.15;;
56541;SDS011;42438;53.174;6.730;2023-02-28T10:32:32;13.20;;;6.93;;
56541;SDS011;42438;53.174;6.730;2023-02-28T10:37:42;11.15;;;5.57;;
56541;SDS011;42438;53.174;6.730;2023-02-28T10:43:03;8.45;;;4.72;;
56541;SDS011;42438;53.174;6.730;2023-02-28T10:45:56;5.15;;;3.00;;
56541;SDS011;42438;53.174;6.730;2023-02-28T10:51:05;10.63;;;5.28;;
56541;SDS011;42438;53.174;6.730;2023-02-28T10:53:51;7.03;;;3.78;;
56541;SDS011;42438;53.174;6.730;2023-02-28T10:56:24;7.45;;;4.32;;
56541;SDS011;42438;53.174;6.730;2023-02-28T11:01:35;10.07;;;4.30;;
56541;SDS011;42438;53.174;6.730;2023-02-28T11:04:17;9.07;;;5.28;;
56541;SDS011;42438;53.174;6.730;2023-02-28T11:06:59;9.48;;;5.43;;
56541;SDS011;42438;53.174;6.730;2023-02-28T11:09:35;11.07;;;5.65;;
56541;SDS011;42438;53.174;6.730;2023-02-28T11:12:19;11.65;;;5.90;;
56541;SDS011;42438;53.174;6.730;2023-02-28T11:15:04;8.90;;;5.15;;
56541;SDS011;42438;53.174;6.730;2023-02-28T11:17:55;10.23;;;5.30;;
56541;SDS011;42438;53.174;6.730;2023-02-28T11:20:41;8.18;;;3.97;;
56541;SDS011;42438;53.174;6.730;2023-02-28T11:23:17;9.07;;;5.78;;
56541;SDS011;42438;53.174;6.730;2023-02-28T11:25:51;8.65;;;4.70;;
56541;SDS011;42438;53.174;6.730;2023-02-28T11:31:00;7.35;;;4.53;;
56541;SDS011;42438;53.174;6.730;2023-02-28T11:33:37;8.65;;;5.05;;
56541;SDS011;42438;53.174;6.730;2023-02-28T11:39:07;9.20;;;5.32;;
56541;SDS011;42438;53.174;6.730;2023-02-28T11:45:32;8.63;;;4.80;;
56541;SDS011;42438;53.174;6.730;2023-02-28T11:48:01;11.30;;;5.30;;
56541;SDS011;42438;53.174;6.730;2023-02-28T11:56:06;9.15;;;5.07;;
56541;SDS011;42438;53.174;6.730;2023-02-28T12:04:22;10.40;;;5.53;;
56541;SDS011;42438;53.174;6.730;2023-02-28T12:12:37;8.15;;;5.55;;
56541;SDS011;42438;53.174;6.730;2023-02-28T12:16:19;9.98;;;5.40;;
56541;SDS011;42438;53.174;6.730;2023-02-28T12:21:31;11.30;;;5.35;;
56541;SDS011;42438;53.174;6.730;2023-02-28T12:24:15;11.55;;;5.55;;
56541;SDS011;42438;53.174;6.730;2023-02-28T12:26:51;9.82;;;5.65;;
56541;SDS011;42438;53.174;6.730;2023-02-28T12:29:28;9.98;;;5.90;;
56541;SDS011;42438;53.174;6.730;2023-02-28T12:32:16;9.57;;;5.82;;
56541;SDS011;42438;53.174;6.730;2023-02-28T12:34:58;11.30;;;5.63;;
56541;SDS011;42438;53.174;6.730;2023-02-28T12:37:38;10.65;;;5.20;;
56541;SDS011;42438;53.174;6.730;2023-02-28T12:43:34;9.50;;;5.65;;
56541;SDS011;42438;53.174;6.730;2023-02-28T12:48:57;8.93;;;5.88;;
56541;SDS011;42438;53.174;6.730;2023-02-28T12:51:34;9.38;;;5.00;;
56541;SDS011;42438;53.174;6.730;2023-02-28T12:54:25;12.63;;;6.03;;
56541;SDS011;42438;53.174;6.730;2023-02-28T13:00:19;9.70;;;5.03;;
56541;SDS011;42438;53.174;6.730;2023-02-28T13:03:03;10.15;;;5.50;;
56541;SDS011;42438;53.174;6.730;2023-02-28T13:08:47;9.82;;;6.18;;
56541;SDS011;42438;53.174;6.730;2023-02-28T13:11:45;9.02;;;5.45;;
56541;SDS011;42438;53.174;6.730;2023-02-28T13:24:56;10.45;;;5.72;;
56541;SDS011;42438;53.174;6.730;2023-02-28T13:27:45;10.73;;;5.25;;
56541;SDS011;42438;53.174;6.730;2023-02-28T13:33:32;9.00;;;5.45;;
56541;SDS011;42438;53.174;6.730;2023-02-28T13:36:32;10.48;;;5.65;;
56541;SDS011;42438;53.174;6.730;2023-02-28T13:39:11;9.10;;;5.47;;
56541;SDS011;42438;53.174;6.730;2023-02-28T14:07:23;8.63;;;5.53;;
56541;SDS011;42438;53.174;6.730;2023-02-28T14:10:02;10.00;;;6.30;;
56541;SDS011;42438;53.174;6.730;2023-02-28T14:12:54;8.55;;;4.93;;
56541;SDS011;42438;53.174;6.730;2023-02-28T14:15:45;10.13;;;5.82;;
56541;SDS011;42438;53.174;6.730;2023-02-28T14:18:23;11.02;;;6.28;;
56541;SDS011;42438;53.174;6.730;2023-02-28T14:26:51;10.63;;;6.75;;
56541;SDS011;42438;53.174;6.730;2023-02-28T14:29:56;10.70;;;5.80;;
56541;SDS011;42438;53.174;6.730;2023-02-28T14:37:53;9.30;;;6.25;;
56541;SDS011;42438;53.174;6.730;2023-02-28T14:40:29;8.60;;;5.55;;
56541;SDS011;42438;53.174;6.730;2023-02-28T14:43:03;10.00;;;6.47;;
56541;SDS011;42438;53.174;6.730;2023-02-28T14:45:35;10.55;;;5.93;;
56541;SDS011;42438;53.174;6.730;2023-02-28T14:48:08;8.80;;;5.82;;
56541;SDS011;42438;53.174;6.730;2023-02-28T14:50:40;9.88;;;5.95;;
56541;SDS011;42438;53.174;6.730;2023-02-28T14:53:20;12.00;;;5.80;;
56541;SDS011;42438;53.174;6.730;2023-02-28T14:55:53;12.45;;;6.25;;
56541;SDS011;42438;53.174;6.730;2023-02-28T14:58:31;10.48;;;6.20;;
56541;SDS011;42438;53.174;6.730;2023-02-28T15:01:03;9.07;;;5.80;;
56541;SDS011;42438;53.174;6.730;2023-02-28T15:06:12;10.82;;;5.93;;
56541;SDS011;42438;53.174;6.730;2023-02-28T15:08:47;8.02;;;5.85;;
56541;SDS011;42438;53.174;6.730;2023-02-28T15:11:18;9.18;;;5.57;;
56541;SDS011;42438;53.174;6.730;2023-02-28T15:13:52;9.50;;;5.47;;
56541;SDS011;42438;53.174;6.730;2023-02-28T15:16:36;10.05;;;6.38;;
56541;SDS011;42438;53.174;6.730;2023-02-28T15:19:20;9.25;;;5.82;;
56541;SDS011;42438;53.174;6.730;2023-02-28T15:21:56;9.68;;;6.10;;
56541;SDS011;42438;53.174;6.730;2023-02-28T15:24:36;11.00;;;5.88;;
56541;SDS011;42438;53.174;6.730;2023-02-28T15:27:13;9.20;;;6.30;;
56541;SDS011;42438;53.174;6.730;2023-02-28T15:29:53;8.98;;;5.93;;
56541;SDS011;42438;53.174;6.730;2023-02-28T15:35:17;9.95;;;5.63;;
56541;SDS011;42438;53.174;6.730;2023-02-28T15:37:56;10.88;;;6.18;;
56541;SDS011;42438;53.174;6.730;2023-02-28T15:40:35;8.90;;;6.10;;
56541;SDS011;42438;53.174;6.730;2023-02-28T15:43:16;9.40;;;6.25;;
56541;SDS011;42438;53.174;6.730;2023-02-28T15:48:34;8.07;;;6.03;;
56541;SDS011;42438;53.174;6.730;2023-02-28T15:51:07;10.05;;;5.55;;
56541;SDS011;42438;53.174;6.730;2023-02-28T15:56:23;10.00;;;6.07;;
56541;SDS011;42438;53.174;6.730;2023-02-28T15:58:56;10.15;;;6.03;;
56541;SDS011;42438;53.174;6.730;2023-02-28T16:01:33;8.65;;;6.28;;
56541;SDS011;42438;53.174;6.730;2023-02-28T16:04:16;10.77;;;6.00;;
56541;SDS011;42438;53.174;6.730;2023-02-28T16:09:28;7.95;;;5.35;;
56541;SDS011;42438;53.174;6.730;2023-02-28T16:12:01;9.55;;;6.35;;
56541;SDS011;42438;53.174;6.730;2023-02-28T16:14:33;9.17;;;5.87;;
56541;SDS011;42438;53.174;6.730;2023-02-28T16:17:13;9.13;;;5.72;;
56541;SDS011;42438;53.174;6.730;2023-02-28T16:19:56;8.45;;;6.25;;
56541;SDS011;42438;53.174;6.730;2023-02-28T16:22:28;10.63;;;6.03;;
56541;SDS011;42438;53.174;6.730;2023-02-28T16:24:58;9.68;;;5.63;;
56541;SDS011;42438;53.174;6.730;2023-02-28T16:27:33;8.73;;;5.55;;
56541;SDS011;42438;53.174;6.730;2023-02-28T16:30:07;10.63;;;7.00;;
56541;SDS011;42438;53.174;6.730;2023-02-28T16:32:46;9.88;;;6.47;;
56541;SDS011;42438;53.174;6.730;2023-02-28T16:35:18;10.45;;;6.25;;
56541;SDS011;42438;53.174;6.730;2023-02-28T16:37:50;8.47;;;6.07;;
56541;SDS011;42438;53.174;6.730;2023-02-28T16:40:23;10.68;;;6.85;;
56541;SDS011;42438;53.174;6.730;2023-02-28T16:42:57;13.95;;;10.02;;
56541;SDS011;42438;53.174;6.730;2023-02-28T16:45:29;14.43;;;9.18;;
56541;SDS011;42438;53.174;6.730;2023-02-28T16:48:00;22.35;;;15.70;;
56541;SDS011;42438;53.174;6.730;2023-02-28T16:50:31;19.65;;;8.32;;
56541;SDS011;42438;53.174;6.730;2023-02-28T16:53:02;13.20;;;8.40;;
56541;SDS011;42438;53.174;6.730;2023-02-28T16:55:33;10.40;;;7.55;;
56541;SDS011;42438;53.174;6.730;2023-02-28T16:58:04;12.15;;;7.82;;
56541;SDS011;42438;53.174;6.730;2023-02-28T17:00:35;28.80;;;25.73;;
56541;SDS011;42438;53.174;6.730;2023-02-28T17:03:21;15.15;;;8.93;;
56541;SDS011;42438;53.174;6.730;2023-02-28T17:05:54;13.20;;;8.32;;
56541;SDS011;42438;53.174;6.730;2023-02-28T17:08:24;11.85;;;8.45;;
56541;SDS011;42438;53.174;6.730;2023-02-28T17:10:55;11.05;;;8.75;;
56541;SDS011;42438;53.174;6.730;2023-02-28T17:13:26;12.05;;;8.05;;
56541;SDS011;42438;53.174;6.730;2023-02-28T17:15:57;50.10;;;21.55;;
56541;SDS011;42438;53.174;6.730;2023-02-28T17:18:27;14.70;;;9.63;;
56541;SDS011;42438;53.174;6.730;2023-02-28T17:21:04;32.80;;;19.05;;
56541;SDS011;42438;53.174;6.730;2023-02-28T17:23:43;40.33;;;22.52;;
56541;SDS011;42438;53.174;6.730;2023-02-28T17:26:15;59.10;;;33.92;;
56541;SDS011;42438;53.174;6.730;2023-02-28T17:28:53;36.75;;;22.10;;
56541;SDS011;42438;53.174;6.730;2023-02-28T17:31:26;16.08;;;11.98;;
56541;SDS011;42438;53.174;6.730;2023-02-28T17:33:57;28.05;;;14.38;;
56541;SDS011;42438;53.174;6.730;2023-02-28T17:36:28;32.90;;;17.92;;
56541;SDS011;42438;53.174;6.730;2023-02-28T17:38:58;19.90;;;13.05;;
56541;SDS011;42438;53.174;6.730;2023-02-28T17:41:29;20.48;;;13.88;;
56541;SDS011;42438;53.174;6.730;2023-02-28T17:44:00;23.52;;;13.18;;
56541;SDS011;42438;53.174;6.730;2023-02-28T17:46:31;22.42;;;14.82;;
56541;SDS011;42438;53.174;6.730;2023-02-28T17:49:02;20.85;;;14.18;;
56541;SDS011;42438;53.174;6.730;2023-02-28T17:51:33;21.17;;;12.07;;
56541;SDS011;42438;53.174;6.730;2023-02-28T17:54:04;17.40;;;9.95;;
56541;SDS011;42438;53.174;6.730;2023-02-28T17:56:35;18.00;;;10.68;;